Tolar, New Mexico
Current Conditions -  °F | °C
As of 8:56 AM on Thursday 23 Oct 2014 (Local Time) from K4MR Reporting Station
Clear Clear  
Wind Chill: 59°   Ceiling: Unl
Heat Index: 59°   Visibility: 10mi
Dew Point: 55°   Wind: 12mph
Humidity: 84%   Direction: 260°W
Pressure: 30.19"   Gusts: NA
Location:  34.3861°N, 104.044°W
Report Text: K4MR 231456Z AUTO 26010KT 10SM CLR 15/13 A3019 RMK AO2 SLP184 T01510125 53011
Loading
Personal Weather Stations






























Interactive Weather Map
Tropical Storm Tracking
New forecast layout! Learn more

10-Day Weather Forecast

Advertisements
Track Severe Weather on mobile